sensor_id;sensor_type;location;lat;lon;timestamp;P1;durP1;ratioP1;P2;durP2;ratioP2
45466;SDS011;31212;49.734;8.490;2022-07-23T00:00:14;6.05;;;3.70;;
45466;SDS011;31212;49.734;8.490;2022-07-23T00:02:41;5.68;;;3.25;;
45466;SDS011;31212;49.734;8.490;2022-07-23T00:05:08;5.53;;;3.63;;
45466;SDS011;31212;49.734;8.490;2022-07-23T00:07:35;5.93;;;3.70;;
45466;SDS011;31212;49.734;8.490;2022-07-23T00:10:02;5.78;;;4.00;;
45466;SDS011;31212;49.734;8.490;2022-07-23T00:12:28;6.70;;;3.80;;
45466;SDS011;31212;49.734;8.490;2022-07-23T00:14:56;9.05;;;3.80;;
45466;SDS011;31212;49.734;8.490;2022-07-23T00:17:23;8.45;;;3.92;;
45466;SDS011;31212;49.734;8.490;2022-07-23T00:19:49;12.68;;;4.20;;
45466;SDS011;31212;49.734;8.490;2022-07-23T00:22:16;6.88;;;3.85;;
45466;SDS011;31212;49.734;8.490;2022-07-23T00:24:42;8.32;;;4.45;;
45466;SDS011;31212;49.734;8.490;2022-07-23T00:27:09;6.18;;;4.18;;
45466;SDS011;31212;49.734;8.490;2022-07-23T00:29:36;6.25;;;4.03;;
45466;SDS011;31212;49.734;8.490;2022-07-23T00:32:04;6.60;;;4.07;;
45466;SDS011;31212;49.734;8.490;2022-07-23T00:34:31;7.00;;;4.90;;
45466;SDS011;31212;49.734;8.490;2022-07-23T00:36:57;6.43;;;3.75;;
45466;SDS011;31212;49.734;8.490;2022-07-23T00:39:24;6.03;;;3.83;;
45466;SDS011;31212;49.734;8.490;2022-07-23T00:41:51;6.00;;;3.22;;
45466;SDS011;31212;49.734;8.490;2022-07-23T00:44:19;11.88;;;4.43;;
45466;SDS011;31212;49.734;8.490;2022-07-23T00:46:48;9.27;;;4.10;;
45466;SDS011;31212;49.734;8.490;2022-07-23T00:49:19;8.05;;;4.13;;
45466;SDS011;31212;49.734;8.490;2022-07-23T00:51:46;5.30;;;3.88;;
45466;SDS011;31212;49.734;8.490;2022-07-23T00:54:14;6.40;;;3.90;;
45466;SDS011;31212;49.734;8.490;2022-07-23T00:56:41;4.85;;;3.40;;
45466;SDS011;31212;49.734;8.490;2022-07-23T00:59:09;7.07;;;3.38;;
45466;SDS011;31212;49.734;8.490;2022-07-23T01:01:36;5.13;;;3.58;;
45466;SDS011;31212;49.734;8.490;2022-07-23T01:04:03;6.57;;;4.15;;
45466;SDS011;31212;49.734;8.490;2022-07-23T01:06:31;8.32;;;3.88;;
45466;SDS011;31212;49.734;8.490;2022-07-23T01:09:01;4.57;;;3.33;;
45466;SDS011;31212;49.734;8.490;2022-07-23T01:11:28;7.05;;;4.30;;
45466;SDS011;31212;49.734;8.490;2022-07-23T01:13:56;7.80;;;4.07;;
45466;SDS011;31212;49.734;8.490;2022-07-23T01:16:22;6.35;;;4.65;;
45466;SDS011;31212;49.734;8.490;2022-07-23T01:18:49;6.95;;;4.03;;
45466;SDS011;31212;49.734;8.490;2022-07-23T01:21:16;4.80;;;3.53;;
45466;SDS011;31212;49.734;8.490;2022-07-23T01:23:46;6.18;;;4.00;;
45466;SDS011;31212;49.734;8.490;2022-07-23T01:26:13;5.85;;;4.07;;
45466;SDS011;31212;49.734;8.490;2022-07-23T01:28:42;6.95;;;4.18;;
45466;SDS011;31212;49.734;8.490;2022-07-23T01:31:09;6.10;;;4.00;;
45466;SDS011;31212;49.734;8.490;2022-07-23T01:33:36;5.90;;;3.92;;
45466;SDS011;31212;49.734;8.490;2022-07-23T01:36:02;7.22;;;3.55;;
45466;SDS011;31212;49.734;8.490;2022-07-23T01:38:29;6.40;;;4.10;;
45466;SDS011;31212;49.734;8.490;2022-07-23T01:40:57;5.18;;;3.38;;
45466;SDS011;31212;49.734;8.490;2022-07-23T01:43:29;4.70;;;3.55;;
45466;SDS011;31212;49.734;8.490;2022-07-23T01:45:56;6.28;;;3.55;;
45466;SDS011;31212;49.734;8.490;2022-07-23T01:48:26;5.97;;;3.53;;
45466;SDS011;31212;49.734;8.490;2022-07-23T01:51:19;5.32;;;3.30;;
45466;SDS011;31212;49.734;8.490;2022-07-23T01:53:56;6.18;;;3.80;;
45466;SDS011;31212;49.734;8.490;2022-07-23T01:56:24;6.55;;;4.15;;
45466;SDS011;31212;49.734;8.490;2022-07-23T01:58:50;6.85;;;4.90;;
45466;SDS011;31212;49.734;8.490;2022-07-23T02:01:17;5.55;;;4.10;;
45466;SDS011;31212;49.734;8.490;2022-07-23T02:03:44;8.05;;;4.03;;
45466;SDS011;31212;49.734;8.490;2022-07-23T02:06:11;7.47;;;3.90;;
45466;SDS011;31212;49.734;8.490;2022-07-23T02:08:37;8.43;;;4.10;;
45466;SDS011;31212;49.734;8.490;2022-07-23T02:11:04;6.30;;;4.03;;
45466;SDS011;31212;49.734;8.490;2022-07-23T02:13:33;10.38;;;4.18;;
45466;SDS011;31212;49.734;8.490;2022-07-23T02:16:00;8.40;;;3.88;;
45466;SDS011;31212;49.734;8.490;2022-07-23T02:18:28;6.07;;;3.45;;
45466;SDS011;31212;49.734;8.490;2022-07-23T02:20:54;6.70;;;4.43;;
45466;SDS011;31212;49.734;8.490;2022-07-23T02:23:21;7.07;;;4.00;;
45466;SDS011;31212;49.734;8.490;2022-07-23T02:25:48;11.38;;;3.83;;
45466;SDS011;31212;49.734;8.490;2022-07-23T02:28:14;8.00;;;3.92;;
45466;SDS011;31212;49.734;8.490;2022-07-23T02:30:42;5.72;;;4.47;;
45466;SDS011;31212;49.734;8.490;2022-07-23T02:33:10;7.32;;;4.60;;
45466;SDS011;31212;49.734;8.490;2022-07-23T02:35:38;7.63;;;3.92;;
45466;SDS011;31212;49.734;8.490;2022-07-23T02:38:05;8.50;;;4.60;;
45466;SDS011;31212;49.734;8.490;2022-07-23T02:40:32;11.50;;;4.45;;
45466;SDS011;31212;49.734;8.490;2022-07-23T02:42:59;7.18;;;4.55;;
45466;SDS011;31212;49.734;8.490;2022-07-23T02:45:27;8.43;;;5.18;;
45466;SDS011;31212;49.734;8.490;2022-07-23T02:47:55;9.82;;;4.97;;
45466;SDS011;31212;49.734;8.490;2022-07-23T02:50:22;8.13;;;5.53;;
45466;SDS011;31212;49.734;8.490;2022-07-23T02:52:50;7.57;;;4.65;;
45466;SDS011;31212;49.734;8.490;2022-07-23T02:55:17;6.88;;;4.40;;
45466;SDS011;31212;49.734;8.490;2022-07-23T02:57:43;7.63;;;5.13;;
45466;SDS011;31212;49.734;8.490;2022-07-23T03:00:11;5.97;;;4.35;;
45466;SDS011;31212;49.734;8.490;2022-07-23T03:02:38;6.15;;;4.32;;
45466;SDS011;31212;49.734;8.490;2022-07-23T03:05:06;8.23;;;5.28;;
45466;SDS011;31212;49.734;8.490;2022-07-23T03:07:34;9.20;;;5.20;;
45466;SDS011;31212;49.734;8.490;2022-07-23T03:10:01;7.78;;;5.00;;
45466;SDS011;31212;49.734;8.490;2022-07-23T03:12:27;8.50;;;5.35;;
45466;SDS011;31212;49.734;8.490;2022-07-23T03:14:54;7.47;;;5.25;;
45466;SDS011;31212;49.734;8.490;2022-07-23T03:17:20;9.07;;;5.35;;
45466;SDS011;31212;49.734;8.490;2022-07-23T03:19:47;7.10;;;5.18;;
45466;SDS011;31212;49.734;8.490;2022-07-23T03:22:15;13.68;;;5.30;;
45466;SDS011;31212;49.734;8.490;2022-07-23T03:24:41;7.40;;;4.57;;
45466;SDS011;31212;49.734;8.490;2022-07-23T03:27:27;9.18;;;4.68;;
45466;SDS011;31212;49.734;8.490;2022-07-23T03:29:55;27.02;;;5.68;;
45466;SDS011;31212;49.734;8.490;2022-07-23T03:32:24;5.88;;;3.97;;
45466;SDS011;31212;49.734;8.490;2022-07-23T03:34:51;6.93;;;3.13;;
45466;SDS011;31212;49.734;8.490;2022-07-23T03:37:20;5.85;;;2.72;;
45466;SDS011;31212;49.734;8.490;2022-07-23T03:39:47;4.25;;;2.30;;
45466;SDS011;31212;49.734;8.490;2022-07-23T03:42:14;4.53;;;2.20;;
45466;SDS011;31212;49.734;8.490;2022-07-23T03:44:40;5.38;;;3.15;;
45466;SDS011;31212;49.734;8.490;2022-07-23T03:47:07;4.75;;;2.35;;
45466;SDS011;31212;49.734;8.490;2022-07-23T03:49:34;4.05;;;2.10;;
45466;SDS011;31212;49.734;8.490;2022-07-23T03:52:00;3.47;;;2.25;;
45466;SDS011;31212;49.734;8.490;2022-07-23T03:54:28;4.90;;;2.42;;
45466;SDS011;31212;49.734;8.490;2022-07-23T03:56:55;4.07;;;2.10;;
45466;SDS011;31212;49.734;8.490;2022-07-23T03:59:21;3.72;;;2.13;;
45466;SDS011;31212;49.734;8.490;2022-07-23T04:01:48;4.30;;;2.42;;
45466;SDS011;31212;49.734;8.490;2022-07-23T04:04:15;4.28;;;2.72;;
45466;SDS011;31212;49.734;8.490;2022-07-23T04:06:42;3.90;;;2.13;;
45466;SDS011;31212;49.734;8.490;2022-07-23T04:09:09;4.90;;;2.97;;
45466;SDS011;31212;49.734;8.490;2022-07-23T04:11:37;6.50;;;2.67;;
45466;SDS011;31212;49.734;8.490;2022-07-23T04:14:03;3.83;;;2.05;;
45466;SDS011;31212;49.734;8.490;2022-07-23T04:16:31;3.20;;;2.13;;
45466;SDS011;31212;49.734;8.490;2022-07-23T04:18:57;4.88;;;2.58;;
45466;SDS011;31212;49.734;8.490;2022-07-23T04:21:28;5.85;;;2.47;;
45466;SDS011;31212;49.734;8.490;2022-07-23T04:23:54;4.25;;;2.03;;
45466;SDS011;31212;49.734;8.490;2022-07-23T04:26:21;3.45;;;1.75;;
45466;SDS011;31212;49.734;8.490;2022-07-23T04:28:49;5.25;;;2.33;;
45466;SDS011;31212;49.734;8.490;2022-07-23T04:31:16;3.85;;;2.53;;
45466;SDS011;31212;49.734;8.490;2022-07-23T04:33:42;3.80;;;2.10;;
45466;SDS011;31212;49.734;8.490;2022-07-23T04:36:09;4.18;;;2.38;;
45466;SDS011;31212;49.734;8.490;2022-07-23T04:38:37;4.45;;;2.58;;
45466;SDS011;31212;49.734;8.490;2022-07-23T04:41:04;4.97;;;2.95;;
45466;SDS011;31212;49.734;8.490;2022-07-23T04:43:30;3.13;;;2.55;;
45466;SDS011;31212;49.734;8.490;2022-07-23T04:45:58;2.55;;;1.90;;
45466;SDS011;31212;49.734;8.490;2022-07-23T04:48:26;4.55;;;2.25;;
45466;SDS011;31212;49.734;8.490;2022-07-23T04:50:59;3.95;;;2.05;;
45466;SDS011;31212;49.734;8.490;2022-07-23T04:53:28;4.38;;;2.42;;
45466;SDS011;31212;49.734;8.490;2022-07-23T04:55:59;5.25;;;2.60;;
45466;SDS011;31212;49.734;8.490;2022-07-23T04:58:26;4.15;;;2.58;;
45466;SDS011;31212;49.734;8.490;2022-07-23T05:00:52;5.22;;;3.15;;
45466;SDS011;31212;49.734;8.490;2022-07-23T05:03:20;5.03;;;2.78;;
45466;SDS011;31212;49.734;8.490;2022-07-23T05:05:47;7.65;;;3.13;;
45466;SDS011;31212;49.734;8.490;2022-07-23T05:08:16;3.92;;;2.17;;
45466;SDS011;31212;49.734;8.490;2022-07-23T05:10:48;3.72;;;2.47;;
45466;SDS011;31212;49.734;8.490;2022-07-23T05:13:17;5.93;;;2.80;;
45466;SDS011;31212;49.734;8.490;2022-07-23T05:15:44;7.28;;;3.08;;
45466;SDS011;31212;49.734;8.490;2022-07-23T05:18:12;5.55;;;2.78;;
45466;SDS011;31212;49.734;8.490;2022-07-23T05:20:41;4.10;;;2.67;;
45466;SDS011;31212;49.734;8.490;2022-07-23T05:23:09;3.78;;;2.20;;
45466;SDS011;31212;49.734;8.490;2022-07-23T05:25:36;5.93;;;2.67;;
45466;SDS011;31212;49.734;8.490;2022-07-23T05:28:04;3.95;;;1.98;;
45466;SDS011;31212;49.734;8.490;2022-07-23T05:30:31;10.60;;;3.58;;
45466;SDS011;31212;49.734;8.490;2022-07-23T05:33:00;4.93;;;2.55;;
45466;SDS011;31212;49.734;8.490;2022-07-23T05:35:27;5.05;;;2.92;;
45466;SDS011;31212;49.734;8.490;2022-07-23T05:38:11;5.80;;;2.63;;
45466;SDS011;31212;49.734;8.490;2022-07-23T05:40:38;7.18;;;3.33;;
45466;SDS011;31212;49.734;8.490;2022-07-23T05:43:05;5.13;;;2.90;;
45466;SDS011;31212;49.734;8.490;2022-07-23T05:45:33;3.97;;;2.28;;
45466;SDS011;31212;49.734;8.490;2022-07-23T05:48:00;5.60;;;3.53;;
45466;SDS011;31212;49.734;8.490;2022-07-23T05:53:05;6.57;;;2.42;;
45466;SDS011;31212;49.734;8.490;2022-07-23T05:55:52;6.35;;;3.20;;
45466;SDS011;31212;49.734;8.490;2022-07-23T05:58:19;4.97;;;2.30;;
45466;SDS011;31212;49.734;8.490;2022-07-23T06:00:46;4.93;;;3.03;;
45466;SDS011;31212;49.734;8.490;2022-07-23T06:03:14;5.63;;;3.15;;
45466;SDS011;31212;49.734;8.490;2022-07-23T06:05:41;6.05;;;2.33;;
45466;SDS011;31212;49.734;8.490;2022-07-23T06:08:07;2.88;;;2.42;;
45466;SDS011;31212;49.734;8.490;2022-07-23T06:10:34;4.22;;;2.67;;
45466;SDS011;31212;49.734;8.490;2022-07-23T06:13:03;5.07;;;2.25;;
45466;SDS011;31212;49.734;8.490;2022-07-23T06:15:30;3.65;;;2.22;;
45466;SDS011;31212;49.734;8.490;2022-07-23T06:17:56;4.95;;;2.05;;
45466;SDS011;31212;49.734;8.490;2022-07-23T06:20:23;3.00;;;1.90;;
45466;SDS011;31212;49.734;8.490;2022-07-23T06:22:50;4.70;;;2.22;;
45466;SDS011;31212;49.734;8.490;2022-07-23T06:25:16;3.50;;;2.28;;
45466;SDS011;31212;49.734;8.490;2022-07-23T06:27:45;4.28;;;1.98;;
45466;SDS011;31212;49.734;8.490;2022-07-23T06:30:13;4.47;;;2.20;;
45466;SDS011;31212;49.734;8.490;2022-07-23T06:32:41;4.13;;;2.35;;
45466;SDS011;31212;49.734;8.490;2022-07-23T06:35:08;3.33;;;2.28;;
45466;SDS011;31212;49.734;8.490;2022-07-23T06:37:35;3.30;;;2.45;;
45466;SDS011;31212;49.734;8.490;2022-07-23T06:40:02;6.30;;;2.28;;
45466;SDS011;31212;49.734;8.490;2022-07-23T06:42:29;4.50;;;2.08;;
45466;SDS011;31212;49.734;8.490;2022-07-23T06:44:58;5.10;;;2.80;;
45466;SDS011;31212;49.734;8.490;2022-07-23T06:47:26;4.28;;;2.50;;
45466;SDS011;31212;49.734;8.490;2022-07-23T06:49:53;4.60;;;2.58;;
45466;SDS011;31212;49.734;8.490;2022-07-23T06:52:20;4.85;;;2.42;;
45466;SDS011;31212;49.734;8.490;2022-07-23T06:54:47;4.10;;;2.20;;
45466;SDS011;31212;49.734;8.490;2022-07-23T06:57:14;3.20;;;1.90;;
45466;SDS011;31212;49.734;8.490;2022-07-23T06:59:42;3.70;;;2.10;;
45466;SDS011;31212;49.734;8.490;2022-07-23T07:02:08;3.10;;;2.20;;
45466;SDS011;31212;49.734;8.490;2022-07-23T07:04:37;3.53;;;2.47;;
45466;SDS011;31212;49.734;8.490;2022-07-23T07:07:03;3.33;;;2.10;;
45466;SDS011;31212;49.734;8.490;2022-07-23T07:09:30;3.70;;;1.80;;
45466;SDS011;31212;49.734;8.490;2022-07-23T07:11:56;3.00;;;2.00;;
45466;SDS011;31212;49.734;8.490;2022-07-23T07:14:23;3.88;;;2.25;;
45466;SDS011;31212;49.734;8.490;2022-07-23T07:16:49;5.13;;;2.38;;
45466;SDS011;31212;49.734;8.490;2022-07-23T07:19:16;3.42;;;2.17;;
45466;SDS011;31212;49.734;8.490;2022-07-23T07:21:44;4.25;;;2.63;;
45466;SDS011;31212;49.734;8.490;2022-07-23T07:24:10;3.00;;;1.85;;
45466;SDS011;31212;49.734;8.490;2022-07-23T07:26:37;3.65;;;2.38;;
45466;SDS011;31212;49.734;8.490;2022-07-23T07:29:04;2.30;;;1.65;;
45466;SDS011;31212;49.734;8.490;2022-07-23T07:31:31;3.38;;;2.05;;
45466;SDS011;31212;49.734;8.490;2022-07-23T07:33:58;3.78;;;2.33;;
45466;SDS011;31212;49.734;8.490;2022-07-23T07:36:25;5.53;;;2.15;;
45466;SDS011;31212;49.734;8.490;2022-07-23T07:38:54;3.08;;;2.15;;
45466;SDS011;31212;49.734;8.490;2022-07-23T07:41:20;4.28;;;2.72;;
45466;SDS011;31212;49.734;8.490;2022-07-23T07:43:49;2.92;;;2.00;;
45466;SDS011;31212;49.734;8.490;2022-07-23T07:46:15;6.15;;;2.50;;
45466;SDS011;31212;49.734;8.490;2022-07-23T07:48:42;4.03;;;2.70;;
45466;SDS011;31212;49.734;8.490;2022-07-23T07:51:09;4.15;;;2.35;;
45466;SDS011;31212;49.734;8.490;2022-07-23T07:53:35;4.55;;;1.85;;
45466;SDS011;31212;49.734;8.490;2022-07-23T07:56:03;2.35;;;1.67;;
45466;SDS011;31212;49.734;8.490;2022-07-23T07:58:30;5.43;;;2.10;;
45466;SDS011;31212;49.734;8.490;2022-07-23T08:00:57;2.72;;;1.90;;
45466;SDS011;31212;49.734;8.490;2022-07-23T08:03:23;7.03;;;2.55;;
45466;SDS011;31212;49.734;8.490;2022-07-23T08:05:50;3.03;;;1.92;;
45466;SDS011;31212;49.734;8.490;2022-07-23T08:08:16;3.85;;;2.35;;
45466;SDS011;31212;49.734;8.490;2022-07-23T08:10:43;3.22;;;2.00;;
45466;SDS011;31212;49.734;8.490;2022-07-23T08:13:13;4.15;;;2.42;;
45466;SDS011;31212;49.734;8.490;2022-07-23T08:15:41;5.80;;;3.07;;
45466;SDS011;31212;49.734;8.490;2022-07-23T08:18:08;4.40;;;2.45;;
45466;SDS011;31212;49.734;8.490;2022-07-23T08:20:35;3.42;;;1.90;;
45466;SDS011;31212;49.734;8.490;2022-07-23T08:23:03;4.30;;;2.50;;
45466;SDS011;31212;49.734;8.490;2022-07-23T08:25:31;5.15;;;2.50;;
45466;SDS011;31212;49.734;8.490;2022-07-23T08:27:59;3.97;;;2.50;;
45466;SDS011;31212;49.734;8.490;2022-07-23T08:30:29;3.95;;;2.17;;
45466;SDS011;31212;49.734;8.490;2022-07-23T08:32:57;6.30;;;2.15;;
45466;SDS011;31212;49.734;8.490;2022-07-23T08:35:26;4.13;;;2.53;;
45466;SDS011;31212;49.734;8.490;2022-07-23T08:37:54;3.35;;;2.55;;
45466;SDS011;31212;49.734;8.490;2022-07-23T08:40:22;2.97;;;1.73;;
45466;SDS011;31212;49.734;8.490;2022-07-23T08:42:49;4.28;;;2.20;;
45466;SDS011;31212;49.734;8.490;2022-07-23T08:45:17;3.88;;;2.17;;
45466;SDS011;31212;49.734;8.490;2022-07-23T08:47:48;4.72;;;2.63;;
45466;SDS011;31212;49.734;8.490;2022-07-23T08:50:16;4.05;;;2.05;;
45466;SDS011;31212;49.734;8.490;2022-07-23T08:52:42;4.22;;;1.90;;
45466;SDS011;31212;49.734;8.490;2022-07-23T08:55:09;3.15;;;2.08;;
45466;SDS011;31212;49.734;8.490;2022-07-23T08:57:36;4.75;;;2.20;;
45466;SDS011;31212;49.734;8.490;2022-07-23T09:00:03;5.38;;;2.35;;
45466;SDS011;31212;49.734;8.490;2022-07-23T09:02:31;1.77;;;1.67;;
45466;SDS011;31212;49.734;8.490;2022-07-23T09:05:06;4.53;;;2.45;;
45466;SDS011;31212;49.734;8.490;2022-07-23T09:07:33;2.00;;;1.52;;
45466;SDS011;31212;49.734;8.490;2022-07-23T09:10:07;2.38;;;1.58;;
45466;SDS011;31212;49.734;8.490;2022-07-23T09:12:35;4.53;;;2.47;;
45466;SDS011;31212;49.734;8.490;2022-07-23T09:15:05;3.15;;;2.25;;
45466;SDS011;31212;49.734;8.490;2022-07-23T09:20:11;3.15;;;2.20;;
45466;SDS011;31212;49.734;8.490;2022-07-23T09:22:40;3.55;;;2.13;;
45466;SDS011;31212;49.734;8.490;2022-07-23T09:27:46;2.97;;;1.77;;
45466;SDS011;31212;49.734;8.490;2022-07-23T09:30:15;5.70;;;2.05;;
45466;SDS011;31212;49.734;8.490;2022-07-23T09:32:42;3.92;;;2.28;;
45466;SDS011;31212;49.734;8.490;2022-07-23T09:35:09;3.78;;;2.40;;
45466;SDS011;31212;49.734;8.490;2022-07-23T09:37:36;2.60;;;2.33;;
45466;SDS011;31212;49.734;8.490;2022-07-23T09:40:04;2.75;;;2.15;;
45466;SDS011;31212;49.734;8.490;2022-07-23T09:42:32;4.20;;;2.65;;
45466;SDS011;31212;49.734;8.490;2022-07-23T09:44:59;3.55;;;2.50;;
45466;SDS011;31212;49.734;8.490;2022-07-23T09:47:26;3.88;;;2.45;;
45466;SDS011;31212;49.734;8.490;2022-07-23T09:49:57;3.83;;;2.35;;
45466;SDS011;31212;49.734;8.490;2022-07-23T09:52:27;4.32;;;2.58;;
45466;SDS011;31212;49.734;8.490;2022-07-23T09:54:57;2.75;;;2.33;;
45466;SDS011;31212;49.734;8.490;2022-07-23T09:57:25;3.70;;;2.45;;
45466;SDS011;31212;49.734;8.490;2022-07-23T09:59:52;2.80;;;2.05;;
45466;SDS011;31212;49.734;8.490;2022-07-23T10:02:22;3.97;;;2.15;;
45466;SDS011;31212;49.734;8.490;2022-07-23T10:05:08;3.17;;;1.98;;
45466;SDS011;31212;49.734;8.490;2022-07-23T10:07:55;3.75;;;2.28;;
45466;SDS011;31212;49.734;8.490;2022-07-23T10:10:42;2.70;;;1.88;;
45466;SDS011;31212;49.734;8.490;2022-07-23T10:13:15;3.28;;;2.17;;
45466;SDS011;31212;49.734;8.490;2022-07-23T10:16:02;3.90;;;2.10;;
45466;SDS011;31212;49.734;8.490;2022-07-23T10:18:29;3.47;;;2.55;;
45466;SDS011;31212;49.734;8.490;2022-07-23T10:20:56;2.35;;;1.67;;
45466;SDS011;31212;49.734;8.490;2022-07-23T10:23:27;3.13;;;1.88;;
45466;SDS011;31212;49.734;8.490;2022-07-23T10:26:03;2.97;;;2.05;;
45466;SDS011;31212;49.734;8.490;2022-07-23T10:28:42;2.45;;;2.05;;
45466;SDS011;31212;49.734;8.490;2022-07-23T10:31:26;3.83;;;2.20;;
45466;SDS011;31212;49.734;8.490;2022-07-23T10:34:02;3.70;;;2.40;;
45466;SDS011;31212;49.734;8.490;2022-07-23T10:36:47;3.33;;;1.95;;
45466;SDS011;31212;49.734;8.490;2022-07-23T10:39:22;2.85;;;1.75;;
45466;SDS011;31212;49.734;8.490;2022-07-23T10:41:51;3.58;;;2.22;;
45466;SDS011;31212;49.734;8.490;2022-07-23T10:44:18;3.13;;;1.95;;
45466;SDS011;31212;49.734;8.490;2022-07-23T10:46:55;3.03;;;2.40;;
45466;SDS011;31212;49.734;8.490;2022-07-23T10:49:33;2.88;;;2.28;;
45466;SDS011;31212;49.734;8.490;2022-07-23T10:52:16;3.70;;;2.22;;
45466;SDS011;31212;49.734;8.490;2022-07-23T10:54:53;2.40;;;1.85;;
45466;SDS011;31212;49.734;8.490;2022-07-23T10:57:23;4.70;;;2.17;;
45466;SDS011;31212;49.734;8.490;2022-07-23T11:02:52;2.60;;;1.88;;
45466;SDS011;31212;49.734;8.490;2022-07-23T11:05:20;3.67;;;2.53;;
45466;SDS011;31212;49.734;8.490;2022-07-23T11:10:54;4.50;;;2.53;;
45466;SDS011;31212;49.734;8.490;2022-07-23T11:13:37;2.63;;;2.33;;
45466;SDS011;31212;49.734;8.490;2022-07-23T11:16:06;3.78;;;2.35;;
45466;SDS011;31212;49.734;8.490;2022-07-23T11:24:18;4.57;;;2.72;;
45466;SDS011;31212;49.734;8.490;2022-07-23T11:26:48;4.88;;;2.25;;
45466;SDS011;31212;49.734;8.490;2022-07-23T11:32:21;3.63;;;2.15;;
45466;SDS011;31212;49.734;8.490;2022-07-23T11:35:00;2.33;;;1.92;;
45466;SDS011;31212;49.734;8.490;2022-07-23T11:37:32;2.10;;;1.80;;
45466;SDS011;31212;49.734;8.490;2022-07-23T11:40:00;2.30;;;1.58;;
45466;SDS011;31212;49.734;8.490;2022-07-23T11:44:59;3.00;;;2.00;;
45466;SDS011;31212;49.734;8.490;2022-07-23T11:47:26;4.18;;;2.80;;
45466;SDS011;31212;49.734;8.490;2022-07-23T11:49:53;2.78;;;2.20;;
45466;SDS011;31212;49.734;8.490;2022-07-23T11:52:21;4.25;;;2.60;;
45466;SDS011;31212;49.734;8.490;2022-07-23T11:54:49;3.97;;;2.33;;
45466;SDS011;31212;49.734;8.490;2022-07-23T11:57:17;2.55;;;2.15;;
45466;SDS011;31212;49.734;8.490;2022-07-23T11:59:47;3.55;;;2.38;;
45466;SDS011;31212;49.734;8.490;2022-07-23T12:02:17;4.38;;;2.70;;
45466;SDS011;31212;49.734;8.490;2022-07-23T12:04:47;4.70;;;2.55;;
45466;SDS011;31212;49.734;8.490;2022-07-23T12:07:24;3.00;;;2.33;;
45466;SDS011;31212;49.734;8.490;2022-07-23T12:09:53;3.80;;;3.08;;
45466;SDS011;31212;49.734;8.490;2022-07-23T12:12:20;3.35;;;2.28;;
45466;SDS011;31212;49.734;8.490;2022-07-23T12:14:50;4.03;;;2.40;;
45466;SDS011;31212;49.734;8.490;2022-07-23T12:17:19;3.55;;;2.17;;
45466;SDS011;31212;49.734;8.490;2022-07-23T12:19:47;2.70;;;2.08;;
45466;SDS011;31212;49.734;8.490;2022-07-23T12:22:14;3.85;;;2.50;;
45466;SDS011;31212;49.734;8.490;2022-07-23T12:24:54;3.20;;;2.45;;
45466;SDS011;31212;49.734;8.490;2022-07-23T12:27:23;6.70;;;2.63;;
45466;SDS011;31212;49.734;8.490;2022-07-23T12:29:52;5.65;;;2.40;;
45466;SDS011;31212;49.734;8.490;2022-07-23T12:32:20;5.40;;;3.28;;
45466;SDS011;31212;49.734;8.490;2022-07-23T12:34:49;4.28;;;2.83;;
45466;SDS011;31212;49.734;8.490;2022-07-23T12:37:27;2.70;;;1.98;;
45466;SDS011;31212;49.734;8.490;2022-07-23T12:39:54;3.25;;;2.53;;
45466;SDS011;31212;49.734;8.490;2022-07-23T12:42:21;5.28;;;3.35;;
45466;SDS011;31212;49.734;8.490;2022-07-23T12:45:10;3.25;;;2.20;;
45466;SDS011;31212;49.734;8.490;2022-07-23T12:48:00;4.65;;;2.58;;
45466;SDS011;31212;49.734;8.490;2022-07-23T12:53:05;3.03;;;1.90;;
45466;SDS011;31212;49.734;8.490;2022-07-23T12:55:33;3.53;;;2.65;;
45466;SDS011;31212;49.734;8.490;2022-07-23T12:58:04;2.80;;;2.30;;
45466;SDS011;31212;49.734;8.490;2022-07-23T13:00:34;3.88;;;2.08;;
45466;SDS011;31212;49.734;8.490;2022-07-23T13:03:29;3.30;;;2.38;;
45466;SDS011;31212;49.734;8.490;2022-07-23T13:05:59;4.57;;;3.05;;
45466;SDS011;31212;49.734;8.490;2022-07-23T13:08:28;3.83;;;2.65;;
45466;SDS011;31212;49.734;8.490;2022-07-23T13:10:56;3.40;;;2.47;;
45466;SDS011;31212;49.734;8.490;2022-07-23T13:13:24;3.70;;;2.45;;
45466;SDS011;31212;49.734;8.490;2022-07-23T13:15:54;5.13;;;2.65;;
45466;SDS011;31212;49.734;8.490;2022-07-23T13:18:23;3.72;;;2.58;;
45466;SDS011;31212;49.734;8.490;2022-07-23T13:20:50;6.30;;;2.80;;
45466;SDS011;31212;49.734;8.490;2022-07-23T13:23:17;3.05;;;2.28;;
45466;SDS011;31212;49.734;8.490;2022-07-23T13:25:45;3.53;;;2.67;;
45466;SDS011;31212;49.734;8.490;2022-07-23T13:28:12;3.88;;;2.47;;
45466;SDS011;31212;49.734;8.490;2022-07-23T13:30:40;2.65;;;2.00;;
45466;SDS011;31212;49.734;8.490;2022-07-23T13:33:09;3.35;;;2.40;;
45466;SDS011;31212;49.734;8.490;2022-07-23T13:35:36;3.83;;;2.92;;
45466;SDS011;31212;49.734;8.490;2022-07-23T13:38:03;3.15;;;2.47;;
45466;SDS011;31212;49.734;8.490;2022-07-23T13:40:32;3.40;;;2.63;;
45466;SDS011;31212;49.734;8.490;2022-07-23T13:42:59;5.50;;;2.65;;
45466;SDS011;31212;49.734;8.490;2022-07-23T13:45:26;3.13;;;2.38;;
45466;SDS011;31212;49.734;8.490;2022-07-23T13:47:53;5.03;;;2.65;;
45466;SDS011;31212;49.734;8.490;2022-07-23T13:50:21;2.95;;;2.40;;
45466;SDS011;31212;49.734;8.490;2022-07-23T13:52:48;2.90;;;2.08;;
45466;SDS011;31212;49.734;8.490;2022-07-23T13:55:15;4.90;;;2.22;;
45466;SDS011;31212;49.734;8.490;2022-07-23T13:57:42;3.58;;;2.38;;
45466;SDS011;31212;49.734;8.490;2022-07-23T14:00:09;3.55;;;2.42;;
45466;SDS011;31212;49.734;8.490;2022-07-23T14:02:37;4.72;;;2.08;;
45466;SDS011;31212;49.734;8.490;2022-07-23T14:05:05;3.42;;;2.40;;
45466;SDS011;31212;49.734;8.490;2022-07-23T14:07:36;5.45;;;2.35;;
45466;SDS011;31212;49.734;8.490;2022-07-23T14:10:03;3.28;;;2.25;;
45466;SDS011;31212;49.734;8.490;2022-07-23T14:12:31;4.32;;;2.63;;
45466;SDS011;31212;49.734;8.490;2022-07-23T14:14:58;4.10;;;2.40;;
45466;SDS011;31212;49.734;8.490;2022-07-23T14:17:24;3.40;;;2.40;;
45466;SDS011;31212;49.734;8.490;2022-07-23T14:19:51;3.33;;;2.17;;
45466;SDS011;31212;49.734;8.490;2022-07-23T14:22:18;4.20;;;2.20;;
45466;SDS011;31212;49.734;8.490;2022-07-23T14:24:46;3.03;;;2.13;;
45466;SDS011;31212;49.734;8.490;2022-07-23T14:27:13;3.45;;;2.15;;
45466;SDS011;31212;49.734;8.490;2022-07-23T14:29:40;2.85;;;2.40;;
45466;SDS011;31212;49.734;8.490;2022-07-23T14:32:07;3.08;;;2.13;;
45466;SDS011;31212;49.734;8.490;2022-07-23T14:34:34;3.55;;;2.30;;
45466;SDS011;31212;49.734;8.490;2022-07-23T14:37:01;3.35;;;2.30;;
45466;SDS011;31212;49.734;8.490;2022-07-23T14:39:28;4.10;;;2.33;;
45466;SDS011;31212;49.734;8.490;2022-07-23T14:41:56;2.25;;;1.88;;
45466;SDS011;31212;49.734;8.490;2022-07-23T14:44:23;1.92;;;1.63;;
45466;SDS011;31212;49.734;8.490;2022-07-23T14:46:49;4.32;;;2.25;;
45466;SDS011;31212;49.734;8.490;2022-07-23T14:49:17;4.07;;;2.75;;
45466;SDS011;31212;49.734;8.490;2022-07-23T14:51:43;2.53;;;1.83;;
45466;SDS011;31212;49.734;8.490;2022-07-23T14:54:10;3.72;;;2.08;;
45466;SDS011;31212;49.734;8.490;2022-07-23T14:56:37;2.97;;;2.38;;
45466;SDS011;31212;49.734;8.490;2022-07-23T14:59:05;2.95;;;2.10;;
45466;SDS011;31212;49.734;8.490;2022-07-23T15:01:32;3.88;;;2.35;;
45466;SDS011;31212;49.734;8.490;2022-07-23T15:03:59;4.13;;;2.40;;
45466;SDS011;31212;49.734;8.490;2022-07-23T15:06:26;3.28;;;2.22;;
45466;SDS011;31212;49.734;8.490;2022-07-23T15:08:53;2.53;;;1.90;;
45466;SDS011;31212;49.734;8.490;2022-07-23T15:11:19;4.38;;;2.30;;
45466;SDS011;31212;49.734;8.490;2022-07-23T15:13:46;2.72;;;1.77;;
45466;SDS011;31212;49.734;8.490;2022-07-23T15:16:14;3.03;;;1.55;;
45466;SDS011;31212;49.734;8.490;2022-07-23T15:18:41;5.72;;;2.00;;
45466;SDS011;31212;49.734;8.490;2022-07-23T15:21:08;2.85;;;2.13;;
45466;SDS011;31212;49.734;8.490;2022-07-23T15:23:35;2.92;;;2.17;;